CheckWX is a tool to help pilots better visualize weather data.  It is not intended as a substitute for an official pre-flight weather briefing.

07:39:02 UTC

KCWC METAR
Kickapoo Downtown Airport
Wichita Falls, Texas, USA
Current

24 mins ago

KCWC 280715Z AUTO 17004KT 10SM OVC100 20/16 A2992 RMK AO2 T01970158
Observed
May-28 @ 07:15 UTC
Wind
  • 170° at 4 KTS
Visibility
Flight Rules
VFR
Cloud Levels
  • Overcast at 10,000' AGL
Temperature
20°C / 68°F
Dewpoint
16°C / 61°F
Humidity
78%
Altimeter
29.92" Hg
Pressure
1013.22 hPa
Previous

44 mins ago

KCWC 280655Z AUTO 00000KT 10SM BKN100 20/16 A2992 RMK AO2 T01970157
Observed
May-28 @ 06:55 UTC
Visibility
Flight Rules
VFR
Cloud Levels
  • Broken at 10,000' AGL
Temperature
20°C / 68°F
Dewpoint
16°C / 61°F
Humidity
78%
Altimeter
29.92" Hg
Pressure
1013.22 hPa
Previous

1 hour ago

KCWC 280635Z AUTO 19006KT 10SM SCT100 20/16 A2992 RMK AO2 T01980158
Observed
May-28 @ 06:35 UTC
Wind
  • 190° at 6 KTS
Visibility
Flight Rules
VFR
Cloud Levels
  • Scattered at 10,000' AGL
Temperature
20°C / 68°F
Dewpoint
16°C / 61°F
Humidity
78%
Altimeter
29.92" Hg
Pressure
1013.22 hPa